sensor_id;sensor_type;location;lat;lon;timestamp;P1;durP1;ratioP1;P2;durP2;ratioP2
43861;SDS011;29510;52.140;5.034;2022-10-16T00:09:31;2.55;;;1.25;;
43861;SDS011;29510;52.140;5.034;2022-10-16T00:19:32;1.15;;;0.50;;
43861;SDS011;29510;52.140;5.034;2022-10-16T00:29:33;0.85;;;0.50;;
43861;SDS011;29510;52.140;5.034;2022-10-16T00:39:34;3.05;;;0.93;;
43861;SDS011;29510;52.140;5.034;2022-10-16T00:49:36;2.47;;;0.88;;
43861;SDS011;29510;52.140;5.034;2022-10-16T00:59:37;1.17;;;0.70;;
43861;SDS011;29510;52.140;5.034;2022-10-16T01:09:44;3.53;;;1.00;;
43861;SDS011;29510;52.140;5.034;2022-10-16T01:20:10;1.50;;;0.90;;
43861;SDS011;29510;52.140;5.034;2022-10-16T01:30:23;1.98;;;0.60;;
43861;SDS011;29510;52.140;5.034;2022-10-16T01:40:29;1.27;;;0.40;;
43861;SDS011;29510;52.140;5.034;2022-10-16T01:50:33;1.60;;;0.32;;
43861;SDS011;29510;52.140;5.034;2022-10-16T02:00:41;0.93;;;0.40;;
43861;SDS011;29510;52.140;5.034;2022-10-16T02:10:44;1.40;;;0.70;;
43861;SDS011;29510;52.140;5.034;2022-10-16T02:20:48;1.63;;;0.60;;
43861;SDS011;29510;52.140;5.034;2022-10-16T02:41:56;1.77;;;0.80;;
43861;SDS011;29510;52.140;5.034;2022-10-16T02:51:57;3.17;;;0.75;;
43861;SDS011;29510;52.140;5.034;2022-10-16T03:01:58;2.08;;;0.90;;
43861;SDS011;29510;52.140;5.034;2022-10-16T03:11:59;1.55;;;0.65;;
43861;SDS011;29510;52.140;5.034;2022-10-16T03:22:00;1.48;;;0.68;;
43861;SDS011;29510;52.140;5.034;2022-10-16T03:32:01;3.13;;;1.15;;
43861;SDS011;29510;52.140;5.034;2022-10-16T03:42:02;1.45;;;0.43;;
43861;SDS011;29510;52.140;5.034;2022-10-16T03:52:03;1.20;;;0.95;;
43861;SDS011;29510;52.140;5.034;2022-10-16T04:02:04;2.13;;;0.75;;
43861;SDS011;29510;52.140;5.034;2022-10-16T04:12:05;1.25;;;0.55;;
43861;SDS011;29510;52.140;5.034;2022-10-16T04:22:06;0.60;;;0.40;;
43861;SDS011;29510;52.140;5.034;2022-10-16T04:32:08;1.10;;;0.50;;
43861;SDS011;29510;52.140;5.034;2022-10-16T04:42:09;2.90;;;0.40;;
43861;SDS011;29510;52.140;5.034;2022-10-16T04:52:10;1.67;;;0.43;;
43861;SDS011;29510;52.140;5.034;2022-10-16T05:02:11;1.55;;;0.45;;
43861;SDS011;29510;52.140;5.034;2022-10-16T05:12:12;1.40;;;0.57;;
43861;SDS011;29510;52.140;5.034;2022-10-16T05:22:13;1.40;;;0.45;;
43861;SDS011;29510;52.140;5.034;2022-10-16T05:32:15;1.58;;;0.45;;
43861;SDS011;29510;52.140;5.034;2022-10-16T05:42:17;1.88;;;1.02;;
43861;SDS011;29510;52.140;5.034;2022-10-16T05:52:18;1.33;;;0.50;;
43861;SDS011;29510;52.140;5.034;2022-10-16T06:02:19;1.33;;;0.75;;
43861;SDS011;29510;52.140;5.034;2022-10-16T06:12:20;1.40;;;0.70;;
43861;SDS011;29510;52.140;5.034;2022-10-16T06:22:21;1.27;;;0.50;;
43861;SDS011;29510;52.140;5.034;2022-10-16T06:32:22;3.28;;;1.45;;
43861;SDS011;29510;52.140;5.034;2022-10-16T06:42:23;6.75;;;3.15;;
43861;SDS011;29510;52.140;5.034;2022-10-16T06:52:24;5.68;;;1.73;;
43861;SDS011;29510;52.140;5.034;2022-10-16T07:02:28;6.25;;;2.75;;
43861;SDS011;29510;52.140;5.034;2022-10-16T07:12:29;3.53;;;0.77;;
43861;SDS011;29510;52.140;5.034;2022-10-16T07:22:31;1.23;;;0.50;;
43861;SDS011;29510;52.140;5.034;2022-10-16T07:32:32;13.70;;;1.58;;
43861;SDS011;29510;52.140;5.034;2022-10-16T07:42:33;2.33;;;0.60;;
43861;SDS011;29510;52.140;5.034;2022-10-16T07:52:34;1.60;;;0.40;;
43861;SDS011;29510;52.140;5.034;2022-10-16T08:02:35;0.88;;;0.40;;
43861;SDS011;29510;52.140;5.034;2022-10-16T08:12:36;1.13;;;0.50;;
43861;SDS011;29510;52.140;5.034;2022-10-16T08:22:37;1.13;;;0.73;;
43861;SDS011;29510;52.140;5.034;2022-10-16T08:32:38;1.92;;;0.40;;
43861;SDS011;29510;52.140;5.034;2022-10-16T08:42:43;1.48;;;0.50;;
43861;SDS011;29510;52.140;5.034;2022-10-16T08:52:59;6.45;;;1.52;;
43861;SDS011;29510;52.140;5.034;2022-10-16T09:13:48;4.10;;;0.93;;
43861;SDS011;29510;52.140;5.034;2022-10-16T09:23:57;1.27;;;0.73;;
43861;SDS011;29510;52.140;5.034;2022-10-16T09:34:00;2.55;;;0.60;;
43861;SDS011;29510;52.140;5.034;2022-10-16T09:44:15;1.88;;;0.75;;
43861;SDS011;29510;52.140;5.034;2022-10-16T09:54:29;2.95;;;0.50;;
43861;SDS011;29510;52.140;5.034;2022-10-16T10:04:37;2.75;;;0.85;;
43861;SDS011;29510;52.140;5.034;2022-10-16T10:15:25;2.92;;;0.77;;
43861;SDS011;29510;52.140;5.034;2022-10-16T10:35:32;3.07;;;1.43;;
43861;SDS011;29510;52.140;5.034;2022-10-16T10:45:47;4.85;;;0.60;;
43861;SDS011;29510;52.140;5.034;2022-10-16T11:06:18;1.85;;;0.90;;
43861;SDS011;29510;52.140;5.034;2022-10-16T11:16:28;5.47;;;1.60;;
43861;SDS011;29510;52.140;5.034;2022-10-16T11:26:35;1.60;;;0.60;;
43861;SDS011;29510;52.140;5.034;2022-10-16T11:36:42;1.73;;;0.43;;
43861;SDS011;29510;52.140;5.034;2022-10-16T11:57:33;2.85;;;0.55;;
43861;SDS011;29510;52.140;5.034;2022-10-16T12:07:40;1.27;;;0.40;;
43861;SDS011;29510;52.140;5.034;2022-10-16T12:17:48;2.03;;;0.75;;
43861;SDS011;29510;52.140;5.034;2022-10-16T12:27:54;2.30;;;0.75;;
43861;SDS011;29510;52.140;5.034;2022-10-16T12:38:07;1.13;;;0.40;;
43861;SDS011;29510;52.140;5.034;2022-10-16T12:48:27;1.35;;;0.50;;
43861;SDS011;29510;52.140;5.034;2022-10-16T12:58:35;0.93;;;0.35;;
43861;SDS011;29510;52.140;5.034;2022-10-16T13:09:02;1.08;;;0.30;;
43861;SDS011;29510;52.140;5.034;2022-10-16T13:19:24;2.22;;;0.40;;
43861;SDS011;29510;52.140;5.034;2022-10-16T13:29:43;1.13;;;0.52;;
43861;SDS011;29510;52.140;5.034;2022-10-16T13:39:45;2.35;;;1.10;;
43861;SDS011;29510;52.140;5.034;2022-10-16T13:49:48;2.60;;;1.17;;
43861;SDS011;29510;52.140;5.034;2022-10-16T14:10:20;2.53;;;0.88;;
43861;SDS011;29510;52.140;5.034;2022-10-16T14:20:26;2.40;;;0.80;;
43861;SDS011;29510;52.140;5.034;2022-10-16T14:30:29;1.00;;;0.32;;
43861;SDS011;29510;52.140;5.034;2022-10-16T14:40:34;3.83;;;1.02;;
43861;SDS011;29510;52.140;5.034;2022-10-16T14:50:37;2.33;;;0.60;;
43861;SDS011;29510;52.140;5.034;2022-10-16T15:00:38;1.75;;;0.60;;
43861;SDS011;29510;52.140;5.034;2022-10-16T15:10:39;1.60;;;0.88;;
43861;SDS011;29510;52.140;5.034;2022-10-16T15:20:43;2.13;;;0.60;;
43861;SDS011;29510;52.140;5.034;2022-10-16T15:30:44;1.35;;;0.65;;
43861;SDS011;29510;52.140;5.034;2022-10-16T15:40:46;2.28;;;0.60;;
43861;SDS011;29510;52.140;5.034;2022-10-16T15:50:48;8.05;;;0.30;;
43861;SDS011;29510;52.140;5.034;2022-10-16T16:00:55;1.75;;;0.57;;
43861;SDS011;29510;52.140;5.034;2022-10-16T16:11:02;1.00;;;0.38;;
43861;SDS011;29510;52.140;5.034;2022-10-16T16:21:13;4.93;;;0.70;;
43861;SDS011;29510;52.140;5.034;2022-10-16T16:31:14;1.85;;;0.85;;
43861;SDS011;29510;52.140;5.034;2022-10-16T16:41:19;2.00;;;0.73;;
43861;SDS011;29510;52.140;5.034;2022-10-16T16:51:23;2.13;;;0.70;;
43861;SDS011;29510;52.140;5.034;2022-10-16T17:01:25;4.53;;;1.10;;
43861;SDS011;29510;52.140;5.034;2022-10-16T17:11:27;6.85;;;1.83;;
43861;SDS011;29510;52.140;5.034;2022-10-16T17:21:28;6.63;;;2.80;;
43861;SDS011;29510;52.140;5.034;2022-10-16T17:31:31;6.88;;;2.08;;
43861;SDS011;29510;52.140;5.034;2022-10-16T17:41:35;5.13;;;2.65;;
43861;SDS011;29510;52.140;5.034;2022-10-16T17:51:37;4.68;;;2.08;;
43861;SDS011;29510;52.140;5.034;2022-10-16T18:01:38;3.75;;;1.27;;
43861;SDS011;29510;52.140;5.034;2022-10-16T18:11:40;5.38;;;2.22;;
43861;SDS011;29510;52.140;5.034;2022-10-16T18:21:41;6.07;;;2.72;;
43861;SDS011;29510;52.140;5.034;2022-10-16T18:31:42;4.57;;;1.90;;
43861;SDS011;29510;52.140;5.034;2022-10-16T18:41:43;2.63;;;1.42;;
43861;SDS011;29510;52.140;5.034;2022-10-16T18:51:45;2.78;;;1.42;;
43861;SDS011;29510;52.140;5.034;2022-10-16T19:01:48;6.30;;;2.22;;
43861;SDS011;29510;52.140;5.034;2022-10-16T19:11:49;3.00;;;1.92;;
43861;SDS011;29510;52.140;5.034;2022-10-16T19:21:50;3.95;;;1.63;;
43861;SDS011;29510;52.140;5.034;2022-10-16T19:31:57;5.13;;;1.83;;
43861;SDS011;29510;52.140;5.034;2022-10-16T19:42:01;6.53;;;1.45;;
43861;SDS011;29510;52.140;5.034;2022-10-16T19:52:02;3.22;;;1.38;;
43861;SDS011;29510;52.140;5.034;2022-10-16T20:02:03;3.05;;;1.60;;
43861;SDS011;29510;52.140;5.034;2022-10-16T20:12:04;3.53;;;1.73;;
43861;SDS011;29510;52.140;5.034;2022-10-16T20:22:05;3.38;;;2.05;;
43861;SDS011;29510;52.140;5.034;2022-10-16T20:32:06;2.17;;;0.80;;
43861;SDS011;29510;52.140;5.034;2022-10-16T20:42:07;2.95;;;1.25;;
43861;SDS011;29510;52.140;5.034;2022-10-16T20:52:08;2.88;;;1.40;;
43861;SDS011;29510;52.140;5.034;2022-10-16T21:02:09;2.30;;;0.93;;
43861;SDS011;29510;52.140;5.034;2022-10-16T21:12:11;3.28;;;1.05;;
43861;SDS011;29510;52.140;5.034;2022-10-16T21:22:12;2.30;;;1.20;;
43861;SDS011;29510;52.140;5.034;2022-10-16T21:32:13;2.00;;;1.05;;
43861;SDS011;29510;52.140;5.034;2022-10-16T21:42:14;2.53;;;0.88;;
43861;SDS011;29510;52.140;5.034;2022-10-16T21:52:15;2.15;;;0.73;;
43861;SDS011;29510;52.140;5.034;2022-10-16T22:02:16;1.30;;;0.80;;
43861;SDS011;29510;52.140;5.034;2022-10-16T22:12:17;1.52;;;0.90;;
43861;SDS011;29510;52.140;5.034;2022-10-16T22:22:19;1.70;;;0.63;;
43861;SDS011;29510;52.140;5.034;2022-10-16T22:32:20;1.23;;;0.80;;
43861;SDS011;29510;52.140;5.034;2022-10-16T22:42:21;0.90;;;0.40;;
43861;SDS011;29510;52.140;5.034;2022-10-16T22:52:22;3.05;;;1.20;;
43861;SDS011;29510;52.140;5.034;2022-10-16T23:02:23;1.20;;;0.60;;
43861;SDS011;29510;52.140;5.034;2022-10-16T23:12:24;2.17;;;0.95;;
43861;SDS011;29510;52.140;5.034;2022-10-16T23:22:25;2.35;;;1.02;;
43861;SDS011;29510;52.140;5.034;2022-10-16T23:32:26;2.30;;;1.15;;
43861;SDS011;29510;52.140;5.034;2022-10-16T23:42:27;3.50;;;1.30;;
43861;SDS011;29510;52.140;5.034;2022-10-16T23:52:28;5.25;;;0.90;;
